Time;durP1;ratioP1;P1;durP2;ratioP2;P2;SDS_P1;SDS_P2;PMS_P1;PMS_P2;Temp;Humidity;BMP_temperature;BMP_pressure;BME280_temperature;BME280_humidity;BME280_pressure;Samples;Min_cycle;Max_cycle;Signal;HPM_P1;HPM_P2
2021/08/05 00:00:37;;;;;;;7.45;1.50;;;;;;;28.23;37.25;96219.41;5087241;28;20135;-74
2021/08/05 00:03:02;;;;;;;4.78;1.13;;;;;;;28.23;37.06;96216.75;5090945;28;20023;-73
2021/08/05 00:05:28;;;;;;;2.55;1.27;;;;;;;28.24;37.05;96218.44;5090111;28;20154;-73
2021/08/05 00:07:53;;;;;;;3.03;1.42;;;;;;;28.24;37.16;96218.44;5091973;28;20503;-74
2021/08/05 00:10:19;;;;;;;6.22;1.55;;;;;;;28.22;37.15;96207.19;5093021;28;20027;-74
2021/08/05 00:12:44;;;;;;;1.45;1.02;;;;;;;28.22;37.06;96208.00;5088170;28;20071;-75
2021/08/05 00:15:10;;;;;;;2.10;1.30;;;;;;;28.24;37.13;96216.66;5074760;28;20047;-74
2021/08/05 00:17:35;;;;;;;6.70;1.42;;;;;;;28.23;37.15;96217.63;5088666;28;20034;-75
2021/08/05 00:20:01;;;;;;;1.42;1.00;;;;;;;28.21;37.13;96211.59;5084705;28;20051;-73
2021/08/05 00:22:29;;;;;;;1.63;1.02;;;;;;;28.23;37.37;96212.34;5091111;28;20090;-73
2021/08/05 00:24:54;;;;;;;2.17;0.98;;;;;;;28.21;37.15;96216.88;5102130;28;20425;-74
2021/08/05 00:27:20;;;;;;;4.60;1.30;;;;;;;28.22;37.04;96218.53;5089050;28;20034;-77
2021/08/05 00:29:45;;;;;;;0.90;0.90;;;;;;;28.21;37.16;96216.88;5081259;28;20024;-72
2021/08/05 00:32:10;;;;;;;2.88;1.00;;;;;;;28.21;37.25;96216.88;5078733;28;20036;-75
2021/08/05 00:34:36;;;;;;;7.57;1.40;;;;;;;28.21;36.97;96218.66;5088506;28;20508;-73
2021/08/05 00:37:01;;;;;;;1.73;1.20;;;;;;;28.21;37.25;96216.03;5093053;28;20039;-75
2021/08/05 00:39:27;;;;;;;2.63;1.10;;;;;;;28.22;37.25;96220.38;5101549;27;20035;-76
2021/08/05 00:41:52;;;;;;;2.03;1.10;;;;;;;28.22;37.08;96218.53;5091121;28;20032;-75
2021/08/05 00:44:18;;;;;;;1.95;1.00;;;;;;;28.21;37.12;96221.28;5093299;28;20054;-74
2021/08/05 00:46:43;;;;;;;2.20;1.00;;;;;;;28.21;37.07;96223.94;5082491;28;20032;-75
2021/08/05 00:49:08;;;;;;;8.18;1.50;;;;;;;28.20;37.07;96216.97;5077319;28;20563;-74
2021/08/05 00:51:34;;;;;;;1.63;1.00;;;;;;;28.20;36.97;96223.09;5080728;28;20035;-73
2021/08/05 00:53:59;;;;;;;3.58;1.20;;;;;;;28.21;37.21;96218.66;5091256;28;20141;-73
2021/08/05 00:56:25;;;;;;;4.45;1.33;;;;;;;28.20;36.95;96219.63;5077113;28;20019;-72
2021/08/05 00:58:51;;;;;;;1.05;0.95;;;;;;;28.20;37.21;96217.84;5090437;28;20126;-76
2021/08/05 01:01:22;;;;;;;2.92;0.88;;;;;;;28.20;37.16;96214.34;5091444;28;20028;-74
2021/08/05 01:03:50;;;;;;;1.80;0.85;;;;;;;28.20;37.12;96214.34;5064568;28;20502;-73
2021/08/05 01:06:37;;;;;;;6.43;1.13;;;;;;;28.20;37.07;96209.06;5077493;28;20070;-72
2021/08/05 01:09:26;;;;;;;4.65;1.30;;;;;;;28.19;36.94;96210.88;5094135;28;20020;-76
2021/08/05 01:12:17;;;;;;;2.20;1.00;;;;;;;28.17;37.21;96208.34;5072868;28;20054;-75
2021/08/05 01:14:45;;;;;;;2.58;1.10;;;;;;;28.18;37.26;96207.41;5089459;28;20047;-73
2021/08/05 01:17:10;;;;;;;1.67;1.00;;;;;;;28.17;37.04;96203.09;5086583;28;20448;-76
2021/08/05 01:19:42;;;;;;;1.45;1.10;;;;;;;28.17;37.18;96205.72;5076912;28;20020;-74
2021/08/05 01:22:40;;;;;;;3.63;1.40;;;;;;;28.17;37.03;96211.00;5090185;28;20024;-75
2021/08/05 01:25:11;;;;;;;5.43;1.20;;;;;;;28.16;37.26;96209.31;5072882;27;20125;-73
2021/08/05 01:27:36;;;;;;;1.50;1.10;;;;;;;28.14;37.15;96211.22;5075123;28;20039;-73
2021/08/05 01:30:04;;;;;;;2.97;1.20;;;;;;;28.16;36.96;96209.31;5073267;28;20119;-75
2021/08/05 01:32:29;;;;;;;3.10;1.17;;;;;;;28.16;37.17;96208.47;5080364;28;20517;-74
2021/08/05 01:34:55;;;;;;;2.38;1.10;;;;;;;28.16;37.16;96204.06;5061850;28;20117;-73
2021/08/05 01:37:20;;;;;;;1.23;0.90;;;;;;;28.15;37.09;96206.78;5072565;28;20036;-74
2021/08/05 01:39:46;;;;;;;4.57;1.35;;;;;;;28.16;37.07;96209.31;5074005;28;20477;-75
2021/08/05 01:42:11;;;;;;;5.15;1.20;;;;;;;28.16;37.11;96197.94;5059288;28;20047;-76
2021/08/05 01:44:37;;;;;;;4.65;1.17;;;;;;;28.16;37.32;96198.78;5074909;28;20892;-75
2021/08/05 01:47:02;;;;;;;1.88;1.20;;;;;;;28.16;37.19;96193.50;5070130;28;20039;-76
2021/08/05 01:49:28;;;;;;;1.65;1.25;;;;;;;28.16;37.20;96188.25;5075996;28;20020;-76
2021/08/05 01:51:53;;;;;;;2.53;1.30;;;;;;;28.17;37.05;96195.19;5090926;28;20057;-76
2021/08/05 01:54:19;;;;;;;2.85;1.20;;;;;;;28.16;37.05;96192.66;5085934;28;20077;-74
2021/08/05 01:56:44;;;;;;;5.10;1.15;;;;;;;28.16;37.04;96193.50;5071287;28;20817;-73
2021/08/05 01:59:09;;;;;;;4.50;1.10;;;;;;;28.16;37.25;96195.28;5061460;28;20020;-77
2021/08/05 02:01:35;;;;;;;3.15;1.40;;;;;;;28.16;37.22;96188.25;5091054;28;20096;-73
2021/08/05 02:04:10;;;;;;;3.35;1.15;;;;;;;28.16;37.31;96193.50;5075386;28;20043;-75
2021/08/05 02:06:38;;;;;;;2.83;1.40;;;;;;;28.15;37.20;96183.09;5092892;27;20035;-74
2021/08/05 02:09:29;;;;;;;1.45;1.15;;;;;;;28.16;37.37;96182.13;5082401;28;20786;-75
2021/08/05 02:11:55;;;;;;;2.97;1.42;;;;;;;28.15;37.32;96178.63;5077419;28;20114;-72
2021/08/05 02:14:21;;;;;;;2.60;1.20;;;;;;;28.15;37.30;96181.28;5076734;28;20076;-76
2021/08/05 02:16:46;;;;;;;4.85;1.15;;;;;;;28.15;37.33;96178.63;5071800;28;20114;-74
2021/08/05 02:19:15;;;;;;;6.00;1.23;;;;;;;28.15;37.24;96181.28;5090195;28;20568;-74
2021/08/05 02:21:41;;;;;;;4.70;1.17;;;;;;;28.14;37.17;96179.59;5076602;28;20526;-76
2021/08/05 02:24:06;;;;;;;1.60;1.10;;;;;;;28.14;37.07;96179.59;5074164;28;20023;-76
2021/08/05 02:26:34;;;;;;;4.38;1.30;;;;;;;28.16;37.28;96187.41;5071809;28;22216;-75
2021/08/05 02:28:59;;;;;;;2.17;1.20;;;;;;;28.15;37.34;96176.00;5074848;28;20027;-74
2021/08/05 02:31:24;;;;;;;1.20;0.95;;;;;;;28.16;37.32;96180.34;5074957;28;20095;-74
2021/08/05 02:33:50;;;;;;;4.72;1.30;;;;;;;28.16;37.19;96182.97;5074742;28;20035;-73
2021/08/05 02:36:16;;;;;;;3.15;1.17;;;;;;;28.16;37.31;96180.34;5072920;28;20519;-74
2021/08/05 02:38:41;;;;;;;4.32;1.40;;;;;;;28.15;37.32;96176.00;5087862;28;20089;-74
2021/08/05 02:41:07;;;;;;;1.83;1.02;;;;;;;28.15;37.28;96177.81;5056621;28;20309;-74
2021/08/05 02:43:32;;;;;;;1.50;1.00;;;;;;;28.16;37.27;96176.84;5073610;28;20032;-76
2021/08/05 02:45:58;;;;;;;2.60;1.08;;;;;;;28.16;37.26;96176.84;5072931;28;20056;-74
2021/08/05 02:48:23;;;;;;;1.10;1.00;;;;;;;28.15;37.27;96164.66;5073121;28;20031;-74
2021/08/05 02:50:48;;;;;;;2.90;1.15;;;;;;;28.15;37.24;96165.47;5077057;28;20032;-74
2021/08/05 02:53:14;;;;;;;3.35;1.10;;;;;;;28.16;37.17;96168.94;5060439;28;20031;-74
2021/08/05 02:55:39;;;;;;;3.08;1.08;;;;;;;28.15;37.07;96165.47;5077664;28;20425;-76
2021/08/05 02:58:05;;;;;;;1.88;1.00;;;;;;;28.14;37.30;96158.53;5076466;28;20027;-74
2021/08/05 03:00:30;;;;;;;3.17;0.95;;;;;;;28.16;37.06;96163.69;5073426;28;20046;-76
2021/08/05 03:02:56;;;;;;;2.22;1.17;;;;;;;28.14;37.27;96162.94;5074667;28;20057;-76
2021/08/05 03:05:21;;;;;;;4.22;1.10;;;;;;;28.14;37.12;96158.53;5078523;28;20031;-74
2021/08/05 03:07:46;;;;;;;3.65;1.30;;;;;;;28.13;37.13;96156.84;5072854;28;20020;-75
2021/08/05 03:10:13;;;;;;;2.55;1.23;;;;;;;28.13;37.14;96156.84;5074344;28;20012;-74
2021/08/05 03:12:39;;;;;;;2.55;1.15;;;;;;;28.13;37.05;96156.00;5066607;28;20242;-75
2021/08/05 03:15:05;;;;;;;2.97;1.30;;;;;;;28.13;37.09;96162.13;5086967;28;20389;-74
2021/08/05 03:17:30;;;;;;;3.97;1.20;;;;;;;28.14;37.08;96160.31;5091771;28;20497;-75
2021/08/05 03:19:56;;;;;;;2.95;1.42;;;;;;;28.13;37.12;96158.63;5076597;28;22179;-76
2021/08/05 03:22:21;;;;;;;3.22;1.30;;;;;;;28.13;37.11;96164.75;5073645;28;20027;-73
2021/08/05 03:24:46;;;;;;;6.00;1.45;;;;;;;28.09;37.05;96150.13;5086045;28;20027;-74
2021/08/05 03:27:14;;;;;;;2.45;1.40;;;;;;;28.11;37.15;96150.84;5091172;28;20032;-77
2021/08/05 03:29:39;;;;;;;2.90;1.15;;;;;;;28.12;37.31;96151.69;5089483;28;20027;-76
2021/08/05 03:32:05;;;;;;;2.22;1.30;;;;;;;28.11;37.19;96142.13;5085764;28;20024;-76
2021/08/05 03:34:31;;;;;;;2.67;1.10;;;;;;;28.11;37.08;96142.13;5072862;28;20115;-73
2021/08/05 03:36:56;;;;;;;2.60;1.20;;;;;;;28.08;37.06;96151.09;5074645;28;20312;-73
2021/08/05 03:39:21;;;;;;;1.77;1.10;;;;;;;28.11;37.19;96147.38;5090176;28;20028;-74
2021/08/05 03:41:47;;;;;;;3.10;1.23;;;;;;;28.11;37.18;96157.91;5090174;28;20044;-73
2021/08/05 03:44:13;;;;;;;7.80;1.30;;;;;;;28.11;37.11;96153.47;5074071;28;20024;-76
2021/08/05 03:46:38;;;;;;;4.18;1.17;;;;;;;28.11;37.26;96157.91;5090990;28;20039;-75
2021/08/05 03:49:03;;;;;;;3.63;1.10;;;;;;;28.11;37.01;96156.09;5089838;28;20024;-74
2021/08/05 03:51:29;;;;;;;2.00;1.15;;;;;;;28.10;37.02;96149.16;5089175;28;20042;-73
2021/08/05 03:53:55;;;;;;;4.82;1.52;;;;;;;28.10;37.21;96151.78;5090167;28;20038;-74
2021/08/05 03:56:20;;;;;;;5.22;1.15;;;;;;;28.12;37.25;96159.59;5090988;28;20019;-74
2021/08/05 03:58:46;;;;;;;1.25;1.08;;;;;;;28.11;37.09;96153.47;5094677;28;20442;-73
2021/08/05 04:01:11;;;;;;;2.80;1.20;;;;;;;28.10;37.14;96157.06;5094120;28;20035;-75
2021/08/05 04:03:36;;;;;;;2.60;1.20;;;;;;;28.11;37.21;96158.75;5073715;28;20054;-72
2021/08/05 04:06:02;;;;;;;1.83;1.17;;;;;;;28.10;37.05;96151.78;5090289;28;20101;-74
2021/08/05 04:08:27;;;;;;;1.98;1.02;;;;;;;28.09;37.04;96155.38;5089264;27;20028;-75
2021/08/05 04:10:53;;;;;;;2.35;1.08;;;;;;;28.11;37.02;96160.56;5070060;28;20539;-74
2021/08/05 04:13:18;;;;;;;2.88;1.13;;;;;;;28.10;37.05;96156.25;5087194;28;20028;-76
2021/08/05 04:15:44;;;;;;;2.97;0.90;;;;;;;28.11;37.12;96161.38;5094867;28;20031;-73
2021/08/05 04:18:10;;;;;;;3.53;1.23;;;;;;;28.10;37.07;96159.69;5059032;28;20121;-73
2021/08/05 04:20:35;;;;;;;3.47;1.00;;;;;;;28.08;37.23;96153.72;5072659;27;20110;-76
2021/08/05 04:23:01;;;;;;;1.05;0.80;;;;;;;28.09;37.09;96160.66;5086081;28;20364;-76
2021/08/05 04:25:26;;;;;;;3.05;1.10;;;;;;;28.10;37.17;96172.88;5091686;28;20102;-76
2021/08/05 04:28:50;;;;;;;2.45;1.15;;;;;;;-148.56;100.00;61375.16;5090528;28;20387;-74
2021/08/05 04:32:14;;;;;;;1.30;0.90;;;;;;;-148.56;100.00;61375.16;5088060;28;20338;-74
2021/08/05 04:35:01;;;;;;;7.35;1.13;;;;;;;28.10;100.00;61375.16;5079764;28;20031;-73
2021/08/05 04:38:25;;;;;;;4.93;1.17;;;;;;;-148.56;100.00;61375.16;5094790;28;20385;-76
2021/08/05 04:41:49;;;;;;;2.63;1.27;;;;;;;-148.56;100.00;61375.16;5074661;28;20441;-75
2021/08/05 04:45:11;;;;;;;1.30;1.05;;;;;;;-148.56;100.00;61375.16;5092064;28;20028;-74
2021/08/05 04:47:54;;;;;;;2.83;1.10;;;;;;;28.11;37.09;96155.28;5089722;28;20031;-76
2021/08/05 04:50:19;;;;;;;3.65;1.00;;;;;;;28.08;37.25;96148.44;5097536;28;20024;-75
2021/08/05 04:52:45;;;;;;;2.22;1.05;;;;;;;28.08;37.10;96158.97;5076542;28;20038;-75
2021/08/05 04:55:10;;;;;;;2.65;0.80;;;;;;;28.06;37.19;96160.88;5075636;28;20081;-74
2021/08/05 04:57:53;;;;;;;4.95;1.10;;;;;;;28.05;37.18;96164.47;5074195;28;20039;-74
2021/08/05 05:00:26;;;;;;;2.00;0.90;;;;;;;28.05;37.23;96159.19;5089445;28;20058;-73
2021/08/05 05:02:52;;;;;;;2.67;1.00;;;;;;;28.05;37.22;96159.19;5072037;28;20040;-74
2021/08/05 05:05:17;;;;;;;5.28;1.05;;;;;;;28.05;37.30;96169.72;5074102;28;20371;-76
2021/08/05 05:07:43;;;;;;;4.63;1.15;;;;;;;28.05;37.17;96156.56;5091141;28;20031;-75
2021/08/05 05:10:09;;;;;;;3.22;1.30;;;;;;;28.04;37.23;96162.78;5089843;28;20034;-74
2021/08/05 05:12:35;;;;;;;3.40;1.00;;;;;;;28.05;37.23;96161.84;5095395;28;20020;-74
2021/08/05 05:15:00;;;;;;;2.53;1.13;;;;;;;28.04;37.08;96165.41;5092395;28;20073;-76
2021/08/05 05:17:26;;;;;;;2.58;1.10;;;;;;;28.04;37.23;96160.16;5088573;28;20027;-76
2021/08/05 05:19:51;;;;;;;4.70;1.55;;;;;;;28.04;37.41;96160.16;5075033;28;20421;-75
2021/08/05 05:22:17;;;;;;;4.45;1.10;;;;;;;28.04;37.24;96162.78;5055594;28;20058;-72
2021/08/05 05:24:42;;;;;;;3.35;1.15;;;;;;;28.04;37.16;96158.34;5091669;28;20773;-73
2021/08/05 05:27:07;;;;;;;3.03;0.95;;;;;;;28.04;37.25;96149.63;5090807;28;20058;-75
2021/08/05 05:29:34;;;;;;;3.00;1.20;;;;;;;28.04;37.18;96157.53;5073849;28;20031;-73
2021/08/05 05:31:59;;;;;;;1.42;1.13;;;;;;;28.04;37.24;96153.06;5077280;28;20062;-76
2021/08/05 05:34:25;;;;;;;4.40;1.30;;;;;;;28.04;37.36;96152.25;5088520;28;20023;-75
2021/08/05 05:36:50;;;;;;;1.77;0.82;;;;;;;28.03;37.23;96156.66;5059977;28;20505;-72
2021/08/05 05:39:15;;;;;;;2.70;1.00;;;;;;;28.03;37.27;96150.56;5064530;28;20482;-74
2021/08/05 05:41:41;;;;;;;1.80;0.93;;;;;;;28.05;37.23;96151.28;5092125;28;20043;-75
2021/08/05 05:44:06;;;;;;;3.47;1.30;;;;;;;28.03;37.15;96147.91;5074334;28;20036;-75
2021/08/05 05:46:32;;;;;;;2.38;1.17;;;;;;;28.04;37.05;96147.00;5089120;28;20023;-72
2021/08/05 05:48:57;;;;;;;3.63;1.17;;;;;;;28.04;37.10;96147.00;5076707;28;20116;-73
2021/08/05 05:51:22;;;;;;;4.45;1.15;;;;;;;28.04;37.10;96147.00;5073634;28;20503;-73
2021/08/05 05:53:48;;;;;;;2.83;1.35;;;;;;;28.05;37.09;96159.19;5060431;28;20027;-75
2021/08/05 05:56:14;;;;;;;4.10;1.10;;;;;;;28.05;37.03;96153.94;5091958;28;20036;-76
2021/08/05 05:58:40;;;;;;;2.97;1.25;;;;;;;28.06;37.18;96158.25;5096526;27;20030;-76
2021/08/05 06:01:05;;;;;;;5.15;1.38;;;;;;;28.06;37.07;96158.25;5089636;28;20032;-76
2021/08/05 06:03:31;;;;;;;2.13;1.50;;;;;;;28.06;37.24;96152.97;5088403;28;20513;-77
2021/08/05 06:05:56;;;;;;;4.97;1.48;;;;;;;28.05;37.18;96148.66;5085137;28;20607;-74
2021/08/05 06:08:21;;;;;;;2.92;1.08;;;;;;;28.07;37.20;96141.47;5091726;28;20035;-75
2021/08/05 06:10:47;;;;;;;4.35;1.55;;;;;;;28.07;37.18;96138.84;5092304;28;20490;-76
2021/08/05 06:13:12;;;;;;;5.47;1.20;;;;;;;28.07;37.20;96136.22;5072733;28;20034;-74
2021/08/05 06:15:38;;;;;;;4.22;1.55;;;;;;;28.06;37.14;96133.72;5071389;28;20417;-76
2021/08/05 06:18:03;;;;;;;3.90;1.17;;;;;;;28.08;37.09;96132.66;5056054;28;20047;-75
2021/08/05 06:20:29;;;;;;;3.92;1.05;;;;;;;28.08;36.88;96131.78;5072704;28;20313;-75
2021/08/05 06:22:54;;;;;;;3.20;1.42;;;;;;;28.09;37.23;96131.69;5070597;28;20031;-77
2021/08/05 06:25:20;;;;;;;4.78;1.38;;;;;;;28.10;37.12;96138.63;5087027;28;20035;-75
2021/08/05 06:27:46;;;;;;;2.85;1.10;;;;;;;28.10;37.10;96136.00;5074612;28;20573;-74
2021/08/05 06:30:12;;;;;;;2.35;1.40;;;;;;;28.09;37.11;96134.31;5070977;28;20048;-74
2021/08/05 06:32:38;;;;;;;2.58;1.05;;;;;;;28.08;37.09;96132.66;5055488;28;20027;-73
2021/08/05 06:35:04;;;;;;;0.90;0.73;;;;;;;28.12;37.24;96141.16;5052792;28;20084;-73
2021/08/05 06:37:31;;;;;;;1.55;1.20;;;;;;;28.12;37.19;96138.53;5074807;28;20024;-74
2021/08/05 06:39:57;;;;;;;2.35;1.27;;;;;;;28.12;37.26;96143.78;5076587;28;20096;-76
2021/08/05 06:42:22;;;;;;;3.45;1.70;;;;;;;28.13;37.22;96151.59;5062965;28;20467;-74
2021/08/05 06:44:47;;;;;;;10.82;2.90;;;;;;;28.13;36.95;96141.03;5072598;28;20171;-78
2021/08/05 06:47:13;;;;;;;13.77;3.30;;;;;;;28.11;36.96;96148.19;5077289;28;20489;-75
2021/08/05 06:49:38;;;;;;;7.47;2.70;;;;;;;28.09;36.82;96144.84;5073522;28;20024;-77
2021/08/05 06:52:04;;;;;;;9.18;2.72;;;;;;;28.08;36.73;96144.97;5074271;28;20039;-76
2021/08/05 06:54:29;;;;;;;12.00;2.80;;;;;;;28.05;36.55;96148.66;5086293;28;20071;-76
2021/08/05 06:56:55;;;;;;;7.53;2.58;;;;;;;28.03;36.75;96151.41;5056655;28;20019;-75
2021/08/05 06:59:20;;;;;;;6.30;2.33;;;;;;;28.02;36.55;96154.13;5071021;28;20080;-76
2021/08/05 07:01:46;;;;;;;9.05;3.13;;;;;;;27.95;36.81;96148.47;5087716;28;20081;-75
2021/08/05 07:04:14;;;;;;;9.30;2.95;;;;;;;27.95;36.74;96152.94;5059278;28;20583;-76
2021/08/05 07:06:39;;;;;;;8.63;2.70;;;;;;;27.92;36.73;96143.47;5086144;28;20537;-75
2021/08/05 07:09:05;;;;;;;6.90;3.00;;;;;;;27.90;36.67;96148.81;5074428;28;20040;-77
2021/08/05 07:11:30;;;;;;;14.18;2.90;;;;;;;27.85;36.73;96143.06;5068148;28;20028;-74
2021/08/05 07:13:56;;;;;;;9.75;2.97;;;;;;;27.83;36.54;96150.22;5069425;28;20054;-76
2021/08/05 07:16:21;;;;;;;9.77;3.10;;;;;;;27.81;36.52;96146.84;5069495;28;20032;-75
2021/08/05 07:18:46;;;;;;;5.63;2.35;;;;;;;27.78;36.72;96141.81;5057979;28;20764;-76
2021/08/05 07:21:12;;;;;;;6.88;2.85;;;;;;;27.78;36.83;96147.06;5069604;28;20236;-76
2021/08/05 07:23:37;;;;;;;11.70;2.75;;;;;;;27.76;36.92;96143.69;5086028;28;20070;-75
2021/08/05 07:26:03;;;;;;;6.68;2.50;;;;;;;27.73;37.02;96136.84;5076823;28;20036;-74
2021/08/05 07:28:28;;;;;;;4.13;2.28;;;;;;;27.73;36.61;96141.31;5071133;28;20027;-77
2021/08/05 07:30:57;;;;;;;8.73;2.60;;;;;;;27.72;36.55;96147.53;5057583;28;20026;-76
2021/08/05 07:33:24;;;;;;;5.50;2.70;;;;;;;27.70;36.64;96138.88;5058801;28;20028;-76
2021/08/05 07:35:50;;;;;;;9.93;2.40;;;;;;;27.69;36.36;96131.94;5061349;28;20745;-76
2021/08/05 07:38:15;;;;;;;4.35;2.20;;;;;;;27.65;36.38;96131.31;5085856;28;20027;-74
2021/08/05 07:40:41;;;;;;;8.30;2.40;;;;;;;27.64;36.51;96130.47;5057701;28;20582;-76
2021/08/05 07:43:06;;;;;;;3.42;2.13;;;;;;;27.63;36.66;96128.81;5062012;28;20035;-76
2021/08/05 07:45:32;;;;;;;7.05;2.33;;;;;;;27.61;36.53;96135.94;5077747;28;20031;-75
2021/08/05 07:47:58;;;;;;;6.35;2.25;;;;;;;27.59;36.34;96137.81;5073210;28;20172;-75
2021/08/05 07:50:23;;;;;;;7.10;2.50;;;;;;;27.58;36.23;96135.31;5091120;28;20408;-77
2021/08/05 07:52:48;;;;;;;5.20;2.42;;;;;;;27.56;36.71;96142.44;5087461;28;20532;-74
2021/08/05 07:55:14;;;;;;;7.32;2.58;;;;;;;27.55;36.80;96140.78;5071548;28;20028;-76
2021/08/05 07:57:42;;;;;;;6.07;2.53;;;;;;;27.52;36.78;96139.19;5094919;28;20028;-76
2021/08/05 08:00:13;;;;;;;5.43;2.40;;;;;;;27.54;36.90;96142.59;5078635;28;20027;-76
2021/08/05 08:02:42;;;;;;;7.63;2.75;;;;;;;27.51;36.72;96134.91;5078717;28;20023;-76
2021/08/05 08:05:13;;;;;;;6.90;2.45;;;;;;;27.47;36.43;96133.44;5072492;28;20073;-75
2021/08/05 08:07:39;;;;;;;6.80;2.50;;;;;;;27.50;36.47;96134.03;5088980;28;20024;-76
2021/08/05 08:10:05;;;;;;;7.40;2.50;;;;;;;27.48;36.36;96130.69;5056926;28;20039;-75
2021/08/05 08:12:30;;;;;;;10.18;2.53;;;;;;;27.48;36.64;96135.09;5071104;28;20047;-77
2021/08/05 08:14:56;;;;;;;6.95;2.45;;;;;;;27.49;36.48;96121.00;5071625;28;20587;-74
2021/08/05 08:17:21;;;;;;;7.72;2.28;;;;;;;27.47;36.61;96129.03;5058173;28;20077;-75
2021/08/05 08:19:46;;;;;;;8.90;2.58;;;;;;;27.47;36.71;96126.38;5089833;28;20058;-75
2021/08/05 08:22:14;;;;;;;11.10;2.60;;;;;;;27.46;36.46;96121.22;5060226;28;20036;-75
2021/08/05 08:24:40;;;;;;;4.70;2.33;;;;;;;27.47;36.52;96122.91;5059395;28;20501;-75
2021/08/05 08:27:05;;;;;;;9.20;2.40;;;;;;;27.45;35.99;96120.38;5076009;28;20031;-75
2021/08/05 08:29:31;;;;;;;4.10;2.13;;;;;;;27.42;36.03;96109.25;5068910;28;20032;-77
2021/08/05 08:31:56;;;;;;;6.07;2.45;;;;;;;27.39;35.80;96108.50;5087377;28;20360;-79
2021/08/05 08:34:21;;;;;;;3.80;2.47;;;;;;;27.41;35.88;96113.66;5062636;28;20118;-76
2021/08/05 08:36:47;;;;;;;7.68;2.33;;;;;;;27.35;35.62;96117.53;5078682;28;20498;-76
2021/08/05 08:39:15;;;;;;;5.55;2.08;;;;;;;27.35;35.71;96109.66;5089564;28;20038;-76
2021/08/05 08:41:43;;;;;;;2.75;2.08;;;;;;;27.33;35.81;96106.31;5075386;28;20047;-76
2021/08/05 08:44:09;;;;;;;5.18;1.92;;;;;;;27.36;35.87;96111.34;5071318;28;20039;-74
2021/08/05 08:46:35;;;;;;;3.05;1.95;;;;;;;27.38;35.94;96114.72;5085082;28;20027;-75
2021/08/05 08:49:01;;;;;;;4.78;1.80;;;;;;;27.41;36.04;96105.75;5086889;28;20036;-79
2021/08/05 08:51:29;;;;;;;3.67;2.10;;;;;;;27.45;36.10;96109.00;5056855;28;20129;-72
2021/08/05 08:53:54;;;;;;;2.97;1.80;;;;;;;27.48;36.12;96108.78;5068919;28;20405;-72
2021/08/05 08:56:25;;;;;;;2.92;2.10;;;;;;;27.50;36.16;96112.16;5056878;28;20020;-75
2021/08/05 08:58:50;;;;;;;5.97;1.63;;;;;;;27.56;36.13;96106.47;5079768;27;20101;-75
2021/08/05 09:01:16;;;;;;;4.47;1.70;;;;;;;27.56;36.14;96098.56;5061298;28;20049;-75
2021/08/05 09:03:41;;;;;;;2.10;1.67;;;;;;;27.59;36.22;96103.63;5073732;28;20027;-75
2021/08/05 09:06:07;;;;;;;3.80;1.80;;;;;;;27.62;36.19;96106.03;5070288;28;20707;-74
2021/08/05 09:08:32;;;;;;;3.08;1.52;;;;;;;27.67;36.41;96104.88;5072019;28;20020;-74
2021/08/05 09:10:58;;;;;;;4.95;2.30;;;;;;;27.69;36.32;96105.63;5077074;28;20028;-75
2021/08/05 09:13:23;;;;;;;4.18;2.20;;;;;;;27.71;36.43;96103.69;5077528;28;20028;-75
2021/08/05 09:15:49;;;;;;;3.55;1.67;;;;;;;27.74;36.25;96109.59;5094062;28;20027;-74
2021/08/05 09:18:34;;;;;;;3.83;1.98;;;;;;;27.76;36.36;96099.78;5097219;28;20042;-75
2021/08/05 09:21:26;;;;;;;7.55;2.42;;;;;;;27.75;36.25;96094.63;5076973;28;20040;-74
2021/08/05 09:23:53;;;;;;;2.83;1.80;;;;;;;27.81;36.41;96096.84;5089474;28;20074;-75
2021/08/05 09:26:28;;;;;;;3.03;1.92;;;;;;;27.81;36.45;96099.47;5094703;28;20095;-75
2021/08/05 09:29:08;;;;;;;4.20;2.35;;;;;;;27.83;36.42;96102.81;5092825;28;20040;-72
2021/08/05 09:31:34;;;;;;;7.03;1.80;;;;;;;27.83;36.33;96088.81;5094559;28;20039;-74
2021/08/05 09:34:05;;;;;;;6.30;2.05;;;;;;;27.86;36.49;96092.06;5075728;28;20045;-73
2021/08/05 09:36:30;;;;;;;13.57;1.85;;;;;;;27.88;36.35;96090.16;5089302;28;20439;-74
2021/08/05 09:38:56;;;;;;;5.88;1.83;;;;;;;27.89;36.55;96091.81;5058879;28;20554;-74
2021/08/05 09:41:21;;;;;;;2.70;1.98;;;;;;;27.91;36.39;96086.44;5079868;28;20032;-74
2021/08/05 09:43:46;;;;;;;5.05;1.73;;;;;;;27.93;36.66;96092.47;5072388;28;20028;-74
2021/08/05 09:46:14;;;;;;;4.03;1.73;;;;;;;27.95;36.51;96084.47;5092266;28;20027;-72
2021/08/05 09:48:41;;;;;;;3.33;1.67;;;;;;;27.97;36.55;96087.81;5091926;28;20482;-75
2021/08/05 09:51:11;;;;;;;3.92;1.83;;;;;;;27.97;36.59;96074.63;5082096;28;20628;-75
2021/08/05 09:53:53;;;;;;;4.30;1.70;;;;;;;28.00;36.47;96082.31;5076591;28;20028;-73
2021/08/05 09:56:18;;;;;;;2.83;1.40;;;;;;;27.99;36.57;96080.66;5081809;28;20501;-72
2021/08/05 09:58:44;;;;;;;4.63;1.70;;;;;;;28.00;36.45;96083.16;5090301;28;20066;-73
2021/08/05 10:01:09;;;;;;;6.68;1.60;;;;;;;28.03;36.56;96082.06;5074494;28;20020;-75
2021/08/05 10:03:35;;;;;;;2.22;1.63;;;;;;;28.02;36.67;96076.00;5079226;28;20123;-74
2021/08/05 10:06:05;;;;;;;2.88;1.85;;;;;;;28.03;36.51;96069.75;5075455;28;20049;-72
2021/08/05 10:08:41;;;;;;;2.20;1.70;;;;;;;28.06;36.67;96076.59;5092567;28;20370;-74
2021/08/05 10:11:07;;;;;;;3.80;1.80;;;;;;;28.06;36.67;96067.88;5057459;28;20651;-76
2021/08/05 10:13:37;;;;;;;4.13;1.58;;;;;;;28.08;36.45;96068.59;5093973;28;20023;-73
2021/08/05 10:16:03;;;;;;;2.17;1.60;;;;;;;28.10;36.71;96067.50;5089922;28;20041;-74
2021/08/05 10:18:30;;;;;;;2.75;1.70;;;;;;;28.11;36.57;96058.66;5061638;28;20076;-73
2021/08/05 10:20:57;;;;;;;2.40;1.67;;;;;;;28.14;36.64;96058.44;5075127;28;20754;-75
2021/08/05 10:23:24;;;;;;;2.33;1.63;;;;;;;28.13;36.46;96051.50;5077855;28;20440;-72
2021/08/05 10:25:49;;;;;;;2.38;1.38;;;;;;;28.13;36.58;96054.13;5090054;28;20023;-75
2021/08/05 10:28:15;;;;;;;3.97;1.65;;;;;;;28.14;36.94;96052.31;5073671;28;20335;-75
2021/08/05 10:30:41;;;;;;;1.80;1.52;;;;;;;28.15;36.71;96049.56;5068459;28;20019;-73
2021/08/05 10:33:06;;;;;;;2.92;1.58;;;;;;;28.16;36.96;96051.25;5077876;28;20043;-77
2021/08/05 10:35:33;;;;;;;2.13;1.50;;;;;;;28.14;37.00;96047.88;5066996;28;20028;-75
2021/08/05 10:37:58;;;;;;;2.30;1.27;;;;;;;28.14;37.54;96052.31;5070869;28;20104;-75
2021/08/05 10:40:24;;;;;;;2.75;1.40;;;;;;;28.12;37.22;96044.53;5052502;28;20032;-76
2021/08/05 10:42:50;;;;;;;1.35;1.25;;;;;;;28.13;37.55;96040.94;5053552;28;20763;-75
2021/08/05 10:45:18;;;;;;;5.85;1.50;;;;;;;28.20;37.41;96040.47;5065926;28;20038;-75
2021/08/05 10:47:45;;;;;;;2.05;1.40;;;;;;;28.28;37.12;96043.41;5066123;28;20685;-76
2021/08/05 10:50:15;;;;;;;2.13;1.30;;;;;;;28.36;35.53;96027.88;5065879;28;20030;-76
2021/08/05 10:53:01;;;;;;;6.70;1.58;;;;;;;28.49;34.77;96035.66;5065413;28;20036;-76
2021/08/05 10:55:29;;;;;;;2.60;1.40;;;;;;;28.59;34.40;96024.41;5052644;28;20132;-74
2021/08/05 10:58:19;;;;;;;3.30;1.60;;;;;;;28.72;34.32;96019.88;5066098;28;20564;-75
2021/08/05 11:00:50;;;;;;;3.42;1.30;;;;;;;28.84;33.46;96028.66;5085776;27;20043;-76
2021/08/05 11:03:31;;;;;;;;;;;;;;;28.92;32.64;96013.06;5088657;28;20158;-74
2021/08/05 11:05:57;;;;;;;1.90;1.20;;;;;;;29.04;32.89;96016.56;5081897;28;20169;-75
2021/08/05 11:08:23;;;;;;;2.35;1.10;;;;;;;29.12;32.89;96010.69;5076432;28;20035;-77
2021/08/05 11:10:48;;;;;;;1.42;1.00;;;;;;;29.20;32.91;96013.53;5080630;28;20574;-79
2021/08/05 11:13:16;;;;;;;2.58;1.17;;;;;;;29.28;32.91;96012.06;5087211;28;20023;-75
2021/08/05 11:15:42;;;;;;;10.50;1.92;;;;;;;29.37;32.30;96002.59;5060494;28;20173;-76
2021/08/05 11:18:07;;;;;;;4.63;1.15;;;;;;;29.43;31.79;96008.22;5094236;28;20050;-77
2021/08/05 11:20:43;;;;;;;4.03;1.67;;;;;;;29.48;32.59;96000.75;5091498;28;20040;-76
2021/08/05 11:23:45;;;;;;;5.72;1.90;;;;;;;29.56;32.42;95996.69;5089001;28;20024;-75
2021/08/05 11:26:11;;;;;;;3.28;1.65;;;;;;;29.60;31.95;95998.13;5091739;28;20768;-74
2021/08/05 11:28:46;;;;;;;1.52;1.17;;;;;;;29.64;31.50;95989.00;5068887;28;20596;-70
2021/08/05 11:31:28;;;;;;;5.65;1.15;;;;;;;29.68;31.79;95992.22;5084810;28;20124;-76
2021/08/05 11:33:55;;;;;;;3.17;1.30;;;;;;;29.72;31.36;95989.19;5076861;28;20038;-77
2021/08/05 11:36:28;;;;;;;1.85;1.33;;;;;;;29.73;30.90;95980.31;5055111;28;20036;-77
2021/08/05 11:39:04;;;;;;;2.88;1.23;;;;;;;29.81;30.75;95976.19;5048719;28;20262;-76